createdAt,value
2023-04-28T00:01:21.279Z,49.57
2023-04-28T00:06:23.228Z,49.69
2023-04-28T00:11:25.246Z,49.83
2023-04-28T00:16:27.170Z,49.94
2023-04-28T00:21:29.141Z,49.90
2023-04-28T00:26:31.012Z,49.94
2023-04-28T00:31:32.924Z,49.82
2023-04-28T00:36:36.089Z,49.82
2023-04-28T00:41:38.309Z,49.82
2023-04-28T00:46:40.438Z,49.44
2023-04-28T00:51:42.663Z,49.72
2023-04-28T00:56:44.949Z,49.83
2023-04-28T01:01:47.119Z,49.91
2023-04-28T01:06:53.894Z,49.85
2023-04-28T01:11:56.026Z,49.76
2023-04-28T01:17:18.633Z,49.58
2023-04-28T01:22:21.973Z,49.75
2023-04-28T01:27:24.112Z,49.56
2023-04-28T01:32:26.094Z,49.71
2023-04-28T01:37:28.089Z,49.88
2023-04-28T01:42:30.073Z,49.89
2023-04-28T01:47:32.395Z,49.94
2023-04-28T01:52:34.351Z,50.00
2023-04-28T01:57:36.873Z,49.93
2023-04-28T02:02:39.498Z,50.04
2023-04-28T02:07:41.672Z,50.07
2023-04-28T02:12:43.719Z,49.93
2023-04-28T02:17:45.739Z,50.24
2023-04-28T02:22:48.315Z,50.08
2023-04-28T02:27:50.458Z,50.33
2023-04-28T02:32:52.415Z,50.37
2023-04-28T02:37:54.573Z,50.50
2023-04-28T02:42:56.595Z,50.39
2023-04-28T02:48:02.480Z,50.48
2023-04-28T02:53:04.333Z,50.66
2023-04-28T02:58:06.484Z,50.52
2023-04-28T03:03:08.573Z,50.57
2023-04-28T03:08:10.594Z,50.76
2023-04-28T03:13:12.806Z,50.80
2023-04-28T03:18:14.695Z,50.79
2023-04-28T03:23:16.663Z,51.00
2023-04-28T03:28:22.095Z,51.14
2023-04-28T03:33:24.168Z,51.09
2023-04-28T03:38:28.226Z,51.05
2023-04-28T03:43:30.444Z,51.37
2023-04-28T03:48:51.589Z,51.22
2023-04-28T03:53:55.268Z,51.28
2023-04-28T03:58:57.854Z,51.30
2023-04-28T04:04:00.039Z,51.46
2023-04-28T04:09:02.209Z,51.57
2023-04-28T04:14:04.139Z,51.72
2023-04-28T04:19:06.179Z,51.78
2023-04-28T04:24:16.196Z,51.82
2023-04-28T04:29:18.485Z,51.90
2023-04-28T04:34:20.600Z,51.78
2023-04-28T04:39:22.924Z,51.87
2023-04-28T04:44:24.971Z,51.96
2023-04-28T04:49:28.438Z,52.11
2023-04-28T04:54:31.229Z,52.16
2023-04-28T04:59:33.814Z,52.15
2023-04-28T05:04:43.090Z,52.24
2023-04-28T05:09:46.717Z,52.42
2023-04-28T05:14:48.678Z,52.27
2023-04-28T05:19:51.735Z,52.61
2023-04-28T05:24:53.916Z,52.61
2023-04-28T05:29:56.095Z,52.71
2023-04-28T05:34:58.039Z,52.73
2023-04-28T05:39:59.973Z,52.56
2023-04-28T05:45:02.861Z,52.82
2023-04-28T05:50:05.468Z,52.90
2023-04-28T05:55:08.334Z,53.14
2023-04-28T06:00:11.492Z,53.14
2023-04-28T06:05:16.693Z,53.37
2023-04-28T06:10:20.602Z,53.25
2023-04-28T06:15:22.562Z,53.41
2023-04-28T06:20:24.575Z,53.44
2023-04-28T06:25:26.893Z,53.59
2023-04-28T06:30:29.357Z,53.55
2023-04-28T06:35:31.405Z,53.73
2023-04-28T06:40:33.503Z,53.75
2023-04-28T06:45:37.529Z,54.05
2023-04-28T06:50:41.148Z,54.11
2023-04-28T06:55:44.294Z,54.12
2023-04-28T07:00:46.287Z,54.34
2023-04-28T07:05:48.563Z,54.39
2023-04-28T07:10:50.558Z,54.50
2023-04-28T07:15:52.639Z,54.56
2023-04-28T07:20:54.644Z,54.63
2023-04-28T07:25:58.332Z,54.56
2023-04-28T07:31:03.541Z,54.82
2023-04-28T07:36:06.046Z,54.72
2023-04-28T07:41:10.031Z,54.99
2023-04-28T07:46:13.824Z,54.96
2023-04-28T07:51:16.687Z,55.18
2023-04-28T07:56:18.809Z,55.13
2023-04-28T08:01:20.738Z,55.13
2023-04-28T08:06:22.843Z,55.23
2023-04-28T08:11:24.848Z,55.02
2023-04-28T08:16:27.499Z,54.85
2023-04-28T08:21:29.420Z,54.55
2023-04-28T08:26:31.447Z,54.28
2023-04-28T08:31:33.555Z,53.99
2023-04-28T08:36:35.564Z,53.91
2023-04-28T08:41:40.099Z,54.07
2023-04-28T08:46:43.753Z,54.07
2023-04-28T08:51:50.443Z,53.93
2023-04-28T08:56:52.663Z,53.92
2023-04-28T09:01:54.772Z,53.50
2023-04-28T09:06:56.882Z,53.11
2023-04-28T09:12:01.046Z,53.00
2023-04-28T09:17:09.586Z,52.86
2023-04-28T09:22:25.458Z,52.81
2023-04-28T09:27:29.009Z,52.82
2023-04-28T09:32:31.174Z,53.10
2023-04-28T09:37:35.264Z,53.04
2023-04-28T09:42:48.114Z,53.09
2023-04-28T09:47:50.367Z,53.00
2023-04-28T09:52:58.305Z,52.92
2023-04-28T09:58:03.492Z,52.67
2023-04-28T10:03:08.569Z,52.94
2023-04-28T10:08:12.107Z,52.75
2023-04-28T10:13:15.324Z,52.65
2023-04-28T10:18:18.754Z,52.63
2023-04-28T10:23:54.821Z,52.68
2023-04-28T10:28:58.192Z,52.85
2023-04-28T10:34:23.947Z,52.94
2023-04-28T10:39:26.032Z,52.90
2023-04-28T10:44:30.713Z,53.32
2023-04-28T10:49:57.784Z,53.98
2023-04-28T10:55:30.665Z,54.44
2023-04-28T11:00:33.040Z,54.45
2023-04-28T11:05:35.699Z,54.83
2023-04-28T11:11:15.158Z,55.48
2023-04-28T11:16:19.895Z,55.55
2023-04-28T11:21:23.485Z,55.57
2023-04-28T11:26:25.878Z,55.72
2023-04-28T11:31:28.873Z,55.80
2023-04-28T11:36:36.763Z,55.72
2023-04-28T11:41:45.848Z,56.03
2023-04-28T11:47:01.438Z,55.97
2023-04-28T11:52:08.932Z,56.19
2023-04-28T11:57:22.055Z,56.48
2023-04-28T12:02:29.694Z,56.50
2023-04-28T12:07:44.379Z,56.94
2023-04-28T12:12:52.835Z,56.95
2023-04-28T12:17:55.477Z,57.12
2023-04-28T12:22:57.471Z,57.23
2023-04-28T12:28:04.192Z,57.56
2023-04-28T12:33:06.315Z,57.65
2023-04-28T12:38:11.709Z,58.00
2023-04-28T12:43:14.056Z,58.34
2023-04-28T12:48:16.235Z,58.94
2023-04-28T12:53:18.685Z,59.03
2023-04-28T12:58:20.593Z,59.23
2023-04-28T13:03:22.664Z,59.50
2023-04-28T13:08:24.695Z,59.81
2023-04-28T13:13:26.888Z,60.14
2023-04-28T13:18:28.873Z,60.24
2023-04-28T13:23:31.063Z,60.71
2023-04-28T13:28:33.263Z,61.04
2023-04-28T13:33:35.218Z,61.33
2023-04-28T13:38:37.201Z,61.75
2023-04-28T13:43:39.276Z,62.19
2023-04-28T13:48:41.218Z,62.53
2023-04-28T13:53:43.193Z,62.73
2023-04-28T13:58:45.306Z,62.87
2023-04-28T14:03:47.598Z,63.22
2023-04-28T14:08:49.847Z,63.44
2023-04-28T14:13:51.782Z,63.35
2023-04-28T14:18:53.665Z,63.53
2023-04-28T14:23:55.540Z,63.59
2023-04-28T14:28:57.994Z,63.67
2023-04-28T14:33:59.979Z,63.72
2023-04-28T14:39:02.005Z,63.64
2023-04-28T14:44:04.191Z,63.49
2023-04-28T14:49:07.161Z,63.24
2023-04-28T14:54:09.761Z,63.10
2023-04-28T14:59:11.757Z,62.92
2023-04-28T15:04:13.815Z,62.93
2023-04-28T15:09:15.848Z,62.90
2023-04-28T15:14:18.540Z,62.59
2023-04-28T15:19:20.530Z,62.68
2023-04-28T15:24:22.612Z,62.65
2023-04-28T15:29:24.811Z,62.72
2023-04-28T15:34:26.828Z,62.97
2023-04-28T15:39:28.813Z,62.74
2023-04-28T15:44:31.069Z,62.83
2023-04-28T15:49:33.549Z,62.77
2023-04-28T15:54:35.640Z,62.36
2023-04-28T15:59:37.613Z,62.36
2023-04-28T16:04:39.896Z,62.29
2023-04-28T16:09:42.017Z,62.09
2023-04-28T16:14:43.934Z,62.08
2023-04-28T16:19:45.925Z,62.11
2023-04-28T16:24:48.270Z,62.12
2023-04-28T16:29:50.377Z,62.06
2023-04-28T16:34:58.577Z,62.12
2023-04-28T16:40:00.718Z,62.13
2023-04-28T16:45:02.687Z,62.12
2023-04-28T16:50:04.825Z,62.05
2023-04-28T16:55:07.802Z,62.03
2023-04-28T17:00:10.518Z,61.96
2023-04-28T17:05:12.726Z,61.87
2023-04-28T17:10:14.684Z,61.93
2023-04-28T17:15:19.950Z,61.94
2023-04-28T17:20:22.527Z,61.95
2023-04-28T17:25:24.478Z,62.05
2023-04-28T17:30:27.399Z,62.04
2023-04-28T17:35:29.388Z,61.59
2023-04-28T17:40:31.525Z,62.08
2023-04-28T17:45:33.501Z,62.04
2023-04-28T17:50:35.512Z,62.04
2023-04-28T17:55:37.408Z,62.02
2023-04-28T18:00:39.381Z,62.10
2023-04-28T18:05:41.303Z,62.20
2023-04-28T18:10:43.172Z,62.16
2023-04-28T18:15:46.405Z,62.02
2023-04-28T18:20:48.424Z,62.08
2023-04-28T18:25:50.385Z,62.19
2023-04-28T18:30:52.244Z,62.35
2023-04-28T18:36:06.257Z,62.61
2023-04-28T18:41:17.033Z,62.50
2023-04-28T18:46:19.128Z,62.44
2023-04-28T18:51:21.207Z,62.57
2023-04-28T18:56:24.600Z,62.74
2023-04-28T19:01:27.573Z,62.78
2023-04-28T19:06:30.298Z,62.98
2023-04-28T19:11:32.365Z,62.98
2023-04-28T19:16:34.335Z,63.01
2023-04-28T19:21:42.385Z,63.21
2023-04-28T19:26:44.439Z,63.10
2023-04-28T19:31:46.373Z,63.22
2023-04-28T19:36:48.441Z,63.29
2023-04-28T19:41:50.798Z,63.39
2023-04-28T19:46:52.665Z,63.38
2023-04-28T19:51:54.649Z,63.52
2023-04-28T19:56:56.548Z,63.57
2023-04-28T20:01:58.855Z,63.70
2023-04-28T20:07:02.051Z,63.76
2023-04-28T20:12:06.548Z,63.96
2023-04-28T20:17:09.544Z,64.08
2023-04-28T20:22:11.464Z,64.19
2023-04-28T20:27:13.659Z,64.24
2023-04-28T20:32:15.692Z,64.27
2023-04-28T20:37:18.097Z,64.35
2023-04-28T20:42:20.181Z,64.48
2023-04-28T20:47:22.296Z,64.50
2023-04-28T20:52:24.214Z,64.65
2023-04-28T20:57:26.307Z,64.73
2023-04-28T21:02:28.370Z,64.78
2023-04-28T21:07:30.422Z,64.97
2023-04-28T21:12:32.459Z,64.98
2023-04-28T21:17:34.501Z,65.06
2023-04-28T21:22:36.777Z,65.18
2023-04-28T21:27:38.646Z,65.16
2023-04-28T21:32:42.282Z,65.21
2023-04-28T21:37:44.468Z,65.23
2023-04-28T21:42:48.563Z,65.27
2023-04-28T21:47:50.486Z,65.49
2023-04-28T21:52:52.889Z,65.71
2023-04-28T21:57:58.751Z,65.76
2023-04-28T22:03:02.297Z,65.76
2023-04-28T22:08:04.797Z,65.82
2023-04-28T22:13:06.940Z,65.73
2023-04-28T22:18:09.028Z,65.85
2023-04-28T22:23:11.071Z,65.86
2023-04-28T22:28:14.002Z,66.10
2023-04-28T22:33:19.144Z,66.36
2023-04-28T22:38:21.051Z,66.33
2023-04-28T22:43:23.033Z,66.38
2023-04-28T22:48:25.060Z,66.50
2023-04-28T22:53:27.754Z,66.50
2023-04-28T22:58:29.741Z,66.64
2023-04-28T23:03:32.078Z,66.82
2023-04-28T23:08:35.450Z,66.99
2023-04-28T23:13:37.588Z,67.07
2023-04-28T23:18:39.705Z,67.36
2023-04-28T23:23:41.545Z,67.56
2023-04-28T23:28:43.914Z,67.74
2023-04-28T23:33:47.121Z,67.93
2023-04-28T23:38:49.462Z,68.07
2023-04-28T23:43:52.835Z,68.13
2023-04-28T23:48:54.819Z,68.29
2023-04-28T23:53:56.991Z,68.25
2023-04-28T23:58:58.939Z,68.37
